createdAt,value
2023-08-08T00:00:36.511Z,20.11
2023-08-08T00:03:06.572Z,20.09
2023-08-08T00:05:34.567Z,20.10
2023-08-08T00:08:02.619Z,20.12
2023-08-08T00:10:30.564Z,20.12
2023-08-08T00:12:58.539Z,20.14
2023-08-08T00:15:26.578Z,20.11
2023-08-08T00:17:54.570Z,20.09
2023-08-08T00:20:23.914Z,20.09
2023-08-08T00:22:51.873Z,20.08
2023-08-08T00:25:19.916Z,20.09
2023-08-08T00:27:47.927Z,20.13
2023-08-08T00:30:15.906Z,20.14
2023-08-08T00:32:43.887Z,20.03
2023-08-08T00:35:11.941Z,20.21
2023-08-08T00:37:41.237Z,20.23
2023-08-08T00:40:10.333Z,20.20
2023-08-08T00:42:38.311Z,20.24
2023-08-08T00:45:06.879Z,20.25
2023-08-08T00:47:35.214Z,20.27
2023-08-08T00:50:03.658Z,20.27
2023-08-08T00:52:31.657Z,20.28
2023-08-08T00:55:01.162Z,20.28
2023-08-08T00:57:29.063Z,20.24
2023-08-08T00:59:57.004Z,20.25
2023-08-08T01:02:24.996Z,20.25
2023-08-08T01:04:52.970Z,20.23
2023-08-08T01:07:25.513Z,20.24
2023-08-08T01:09:57.108Z,20.26
2023-08-08T01:12:26.844Z,20.23
2023-08-08T01:14:54.863Z,20.26
2023-08-08T01:17:22.856Z,20.29
2023-08-08T01:19:50.953Z,20.30
2023-08-08T01:22:25.196Z,20.29
2023-08-08T01:24:54.671Z,20.32
2023-08-08T01:27:22.585Z,20.29
2023-08-08T01:29:50.574Z,20.23
2023-08-08T01:32:18.483Z,20.17
2023-08-08T01:34:46.449Z,20.13
2023-08-08T01:37:17.184Z,20.08
2023-08-08T01:39:45.144Z,20.07
2023-08-08T01:42:14.603Z,20.09
2023-08-08T01:44:43.376Z,20.09
2023-08-08T01:47:11.357Z,19.92
2023-08-08T01:49:39.275Z,20.12
2023-08-08T01:52:07.760Z,20.13
2023-08-08T01:54:35.726Z,20.10
2023-08-08T01:57:03.682Z,20.11
2023-08-08T01:59:33.073Z,20.09
2023-08-08T02:02:01.201Z,20.06
2023-08-08T02:04:29.719Z,20.05
2023-08-08T02:06:57.656Z,20.06
2023-08-08T02:09:25.588Z,20.07
2023-08-08T02:11:53.537Z,20.09
2023-08-08T02:14:21.564Z,20.08
2023-08-08T02:16:50.989Z,20.04
2023-08-08T02:19:18.883Z,20.05
2023-08-08T02:21:46.795Z,20.08
2023-08-08T02:24:14.766Z,20.07
2023-08-08T02:26:42.692Z,20.08
2023-08-08T02:29:10.631Z,20.06
2023-08-08T02:31:38.619Z,20.01
2023-08-08T02:34:07.860Z,20.06
2023-08-08T02:36:35.943Z,20.05
2023-08-08T02:39:04.369Z,20.05
2023-08-08T02:41:32.264Z,20.08
2023-08-08T02:44:00.175Z,20.07
2023-08-08T02:46:28.100Z,20.07
2023-08-08T02:48:56.150Z,20.11
2023-08-08T02:51:25.467Z,20.11
2023-08-08T02:53:53.404Z,20.12
2023-08-08T02:56:21.389Z,20.12
2023-08-08T02:58:49.396Z,20.13
2023-08-08T03:01:17.652Z,20.13
2023-08-08T03:03:45.604Z,19.93
2023-08-08T03:06:13.541Z,20.16
2023-08-08T03:08:41.823Z,20.16
2023-08-08T03:11:09.800Z,20.19
2023-08-08T03:13:38.371Z,20.18
2023-08-08T03:16:06.610Z,20.21
2023-08-08T03:18:34.652Z,20.22
2023-08-08T03:21:02.618Z,20.25
2023-08-08T03:23:32.036Z,20.26
2023-08-08T03:26:01.408Z,20.26
2023-08-08T03:28:29.373Z,20.30
2023-08-08T03:30:57.372Z,20.29
2023-08-08T03:33:25.413Z,20.33
2023-08-08T03:35:53.335Z,20.35
2023-08-08T03:38:21.257Z,20.12
2023-08-08T03:40:49.170Z,20.33
2023-08-08T03:43:18.512Z,20.35
2023-08-08T03:45:47.705Z,20.11
2023-08-08T03:48:15.771Z,20.35
2023-08-08T03:50:43.745Z,20.37
2023-08-08T03:53:11.672Z,20.20
2023-08-08T03:55:39.655Z,20.38
2023-08-08T03:58:07.656Z,20.34
2023-08-08T04:00:37.330Z,20.35
2023-08-08T04:03:05.565Z,20.36
2023-08-08T04:05:33.596Z,20.37
2023-08-08T04:08:01.538Z,20.36
2023-08-08T04:10:29.512Z,20.39
2023-08-08T04:12:57.473Z,20.38
2023-08-08T04:15:25.536Z,20.40
2023-08-08T04:17:54.819Z,20.40
2023-08-08T04:20:22.797Z,20.41
2023-08-08T04:22:50.711Z,20.40
2023-08-08T04:25:18.837Z,20.42
2023-08-08T04:27:46.764Z,20.43
2023-08-08T04:30:15.313Z,20.44
2023-08-08T04:32:43.238Z,20.45
2023-08-08T04:35:12.603Z,20.45
2023-08-08T04:37:41.102Z,20.48
2023-08-08T04:40:10.655Z,20.49
2023-08-08T04:42:38.656Z,20.49
2023-08-08T04:45:08.418Z,20.41
2023-08-08T04:47:36.453Z,20.48
2023-08-08T04:50:04.662Z,20.53
2023-08-08T04:52:35.055Z,20.55
2023-08-08T04:55:02.995Z,20.55
2023-08-08T04:57:30.971Z,20.58
2023-08-08T04:59:59.037Z,20.61
2023-08-08T05:02:27.006Z,20.62
2023-08-08T05:04:55.057Z,20.64
2023-08-08T05:07:23.100Z,20.63
2023-08-08T05:09:53.073Z,20.66
2023-08-08T05:12:21.247Z,20.68
2023-08-08T05:14:49.296Z,20.68
2023-08-08T05:17:17.447Z,20.68
2023-08-08T05:19:45.679Z,20.67
2023-08-08T05:22:13.736Z,20.69
2023-08-08T05:24:42.246Z,20.72
2023-08-08T05:27:12.769Z,20.71
2023-08-08T05:29:42.156Z,20.72
2023-08-08T05:32:10.327Z,20.71
2023-08-08T05:34:38.249Z,20.74
2023-08-08T05:37:16.473Z,20.76
2023-08-08T05:39:46.187Z,20.78
2023-08-08T05:42:15.682Z,20.75
2023-08-08T05:44:44.256Z,20.76
2023-08-08T05:47:12.320Z,20.76
2023-08-08T05:49:42.873Z,20.75
2023-08-08T05:52:11.484Z,20.76
2023-08-08T05:54:39.657Z,20.76
2023-08-08T05:57:08.606Z,20.78
2023-08-08T05:59:38.100Z,20.79
2023-08-08T06:02:07.055Z,20.79
2023-08-08T06:04:36.385Z,20.81
2023-08-08T06:07:05.138Z,20.82
2023-08-08T06:09:34.434Z,20.79
2023-08-08T06:12:02.789Z,20.86
2023-08-08T06:14:30.965Z,20.87
2023-08-08T06:17:00.912Z,20.87
2023-08-08T06:19:30.073Z,20.89
2023-08-08T06:21:58.386Z,20.85
2023-08-08T06:24:26.864Z,20.91
2023-08-08T06:26:54.942Z,20.95
2023-08-08T06:29:22.905Z,20.75
2023-08-08T06:31:50.914Z,20.74
2023-08-08T06:34:20.320Z,20.97
2023-08-08T06:36:48.979Z,21.00
2023-08-08T06:39:16.922Z,21.02
2023-08-08T06:41:44.897Z,21.03
2023-08-08T06:44:12.974Z,21.03
2023-08-08T06:46:40.965Z,21.03
2023-08-08T06:49:10.057Z,21.06
2023-08-08T06:51:42.508Z,21.13
2023-08-08T06:54:16.895Z,21.14
2023-08-08T06:56:45.923Z,21.14
2023-08-08T06:59:13.991Z,21.17
2023-08-08T07:01:42.723Z,21.16
2023-08-08T07:04:10.846Z,21.18
2023-08-08T07:06:49.012Z,21.23
2023-08-08T07:09:17.808Z,21.26
2023-08-08T07:11:46.882Z,21.30
2023-08-08T07:14:16.477Z,21.34
2023-08-08T07:16:48.739Z,21.39
2023-08-08T07:19:18.272Z,21.43
2023-08-08T07:21:49.144Z,21.42
2023-08-08T07:24:18.454Z,21.46
2023-08-08T07:26:46.783Z,21.37
2023-08-08T07:29:15.755Z,21.47
2023-08-08T07:31:43.764Z,21.45
2023-08-08T07:34:11.947Z,21.38
2023-08-08T07:36:39.923Z,21.47
2023-08-08T07:39:10.587Z,21.47
2023-08-08T07:41:38.700Z,21.44
2023-08-08T07:44:06.880Z,21.48
2023-08-08T07:46:34.850Z,21.52
2023-08-08T07:49:04.710Z,21.58
2023-08-08T07:51:32.764Z,21.66
2023-08-08T07:54:01.544Z,21.68
2023-08-08T07:56:31.076Z,21.72
2023-08-08T07:58:59.106Z,21.73
2023-08-08T08:01:28.321Z,21.74
2023-08-08T08:03:56.456Z,21.78
2023-08-08T08:06:24.437Z,21.82
2023-08-08T08:08:52.337Z,21.82
2023-08-08T08:11:20.716Z,21.79
2023-08-08T08:13:50.185Z,21.86
2023-08-08T08:16:18.187Z,21.92
2023-08-08T08:18:46.176Z,21.98
2023-08-08T08:21:15.466Z,22.00
2023-08-08T08:23:43.441Z,21.96
2023-08-08T08:26:11.509Z,22.20
2023-08-08T08:28:40.985Z,22.18
2023-08-08T08:31:10.534Z,22.27
2023-08-08T08:33:38.625Z,22.29
2023-08-08T08:36:07.061Z,22.34
2023-08-08T08:38:35.005Z,22.33
2023-08-08T08:41:02.929Z,22.32
2023-08-08T08:43:30.938Z,22.32
2023-08-08T08:45:58.939Z,22.33
2023-08-08T08:48:28.347Z,22.38
2023-08-08T08:50:56.996Z,22.41
2023-08-08T08:53:24.938Z,22.39
2023-08-08T08:55:53.184Z,22.36
2023-08-08T08:58:21.106Z,22.35
2023-08-08T09:00:49.496Z,22.37
2023-08-08T09:03:17.825Z,22.38
2023-08-08T09:05:47.311Z,22.42
2023-08-08T09:08:16.299Z,22.32
2023-08-08T09:10:44.390Z,22.33
2023-08-08T09:13:12.609Z,22.24
2023-08-08T09:15:40.979Z,22.13
2023-08-08T09:18:09.328Z,22.01
2023-08-08T09:20:37.345Z,22.04
2023-08-08T09:23:07.219Z,22.13
2023-08-08T09:25:35.186Z,22.02
2023-08-08T09:28:03.105Z,22.17
2023-08-08T09:30:33.714Z,22.21
2023-08-08T09:33:02.519Z,22.29
2023-08-08T09:35:31.328Z,22.38
2023-08-08T09:37:59.281Z,22.43
2023-08-08T09:40:28.574Z,22.47
2023-08-08T09:42:56.532Z,22.58
2023-08-08T09:45:24.917Z,22.65
2023-08-08T09:47:53.447Z,22.68
2023-08-08T09:50:21.600Z,22.66
2023-08-08T09:52:49.732Z,22.63
2023-08-08T09:55:17.678Z,22.64
2023-08-08T09:57:47.032Z,22.73
2023-08-08T10:00:18.017Z,22.86
2023-08-08T10:02:46.600Z,22.95
2023-08-08T10:05:15.018Z,23.06
2023-08-08T10:07:42.972Z,23.22
2023-08-08T10:10:11.849Z,23.38
2023-08-08T10:12:40.212Z,23.50
2023-08-08T10:15:11.252Z,23.64
2023-08-08T10:17:39.786Z,23.69
2023-08-08T10:20:12.690Z,23.71
2023-08-08T10:22:44.149Z,23.67
2023-08-08T10:25:19.288Z,23.64
2023-08-08T10:27:47.301Z,23.70
2023-08-08T10:30:17.193Z,23.79
2023-08-08T10:32:47.688Z,23.81
2023-08-08T10:35:15.781Z,23.85
2023-08-08T10:37:54.212Z,23.85
2023-08-08T10:40:22.248Z,24.03
2023-08-08T10:42:50.220Z,24.17
2023-08-08T10:45:19.622Z,24.26
2023-08-08T10:47:47.656Z,24.34
2023-08-08T10:50:16.924Z,24.39
2023-08-08T10:52:55.491Z,24.57
2023-08-08T10:55:24.194Z,24.60
2023-08-08T10:57:59.493Z,24.53
2023-08-08T11:00:30.727Z,24.45
2023-08-08T11:02:59.139Z,24.26
2023-08-08T11:05:27.538Z,24.06
2023-08-08T11:07:55.883Z,23.88
2023-08-08T11:10:24.499Z,23.71
2023-08-08T11:12:59.817Z,23.54
2023-08-08T11:15:29.678Z,23.51
2023-08-08T11:17:57.898Z,23.52
2023-08-08T11:20:26.022Z,23.50
2023-08-08T11:22:54.837Z,23.65
2023-08-08T11:25:23.106Z,23.79
2023-08-08T11:27:52.322Z,23.92
2023-08-08T11:30:20.382Z,23.92
2023-08-08T11:33:15.162Z,23.94
2023-08-08T11:35:39.036Z,23.81
2023-08-08T11:38:07.141Z,23.77
2023-08-08T11:40:35.491Z,23.75
2023-08-08T11:43:03.548Z,23.74
2023-08-08T11:45:34.181Z,23.76
2023-08-08T11:48:04.211Z,23.69
2023-08-08T11:50:32.316Z,23.78
2023-08-08T11:53:00.298Z,23.72
2023-08-08T11:55:31.079Z,23.63
2023-08-08T11:58:00.814Z,23.54
2023-08-08T12:00:30.099Z,23.53
2023-08-08T12:02:58.390Z,23.50
2023-08-08T12:05:29.168Z,23.58
2023-08-08T12:07:57.306Z,23.72
2023-08-08T12:10:25.975Z,23.85
2023-08-08T12:13:00.876Z,23.97
2023-08-08T12:15:31.195Z,24.11
2023-08-08T12:18:00.233Z,24.16
2023-08-08T12:20:32.055Z,24.13
2023-08-08T12:23:00.034Z,24.12
2023-08-08T12:25:28.533Z,24.07
2023-08-08T12:27:56.639Z,23.96
2023-08-08T12:30:24.703Z,23.90
2023-08-08T12:32:52.693Z,23.84
2023-08-08T12:35:21.555Z,23.69
2023-08-08T12:37:50.919Z,23.59
2023-08-08T12:40:19.107Z,23.46
2023-08-08T12:42:47.063Z,23.29
2023-08-08T12:45:15.203Z,23.15
2023-08-08T12:47:43.275Z,23.11
2023-08-08T12:50:12.212Z,23.03
2023-08-08T12:52:40.635Z,23.07
2023-08-08T12:55:12.923Z,23.16
2023-08-08T12:57:41.703Z,23.29
2023-08-08T13:00:11.125Z,23.35
2023-08-08T13:02:39.844Z,23.45
2023-08-08T13:05:08.219Z,23.53
2023-08-08T13:07:36.156Z,23.59
2023-08-08T13:10:04.161Z,23.61
2023-08-08T13:12:33.444Z,23.63
2023-08-08T13:15:01.467Z,23.57
2023-08-08T13:17:29.507Z,23.51
2023-08-08T13:19:57.504Z,23.43
2023-08-08T13:22:25.546Z,23.43
2023-08-08T13:24:53.511Z,23.49
2023-08-08T13:27:21.466Z,23.52
2023-08-08T13:29:50.779Z,23.46
2023-08-08T13:32:18.876Z,23.41
2023-08-08T13:34:46.910Z,23.31
2023-08-08T13:37:14.840Z,23.11
2023-08-08T13:39:43.071Z,23.20
2023-08-08T13:42:11.230Z,23.11
2023-08-08T13:44:39.191Z,23.20
2023-08-08T13:47:08.690Z,23.24
2023-08-08T13:49:37.281Z,23.25
2023-08-08T13:52:05.470Z,23.25
2023-08-08T13:54:33.504Z,23.20
2023-08-08T13:57:01.476Z,23.12
2023-08-08T13:59:29.441Z,23.09
2023-08-08T14:01:57.588Z,23.19
2023-08-08T14:04:27.049Z,23.24
2023-08-08T14:06:54.972Z,23.53
2023-08-08T14:09:24.011Z,23.71
2023-08-08T14:11:52.029Z,23.85
2023-08-08T14:14:19.977Z,23.89
2023-08-08T14:16:47.951Z,23.83
2023-08-08T14:19:18.023Z,23.74
2023-08-08T14:21:47.375Z,23.65
2023-08-08T14:24:15.459Z,23.68
2023-08-08T14:26:43.398Z,23.79
2023-08-08T14:29:11.312Z,23.91
2023-08-08T14:31:50.411Z,24.04
2023-08-08T14:34:31.673Z,24.02
2023-08-08T14:37:01.091Z,24.05
2023-08-08T14:39:32.522Z,24.03
2023-08-08T14:42:00.844Z,24.01
2023-08-08T14:44:29.326Z,23.98
2023-08-08T14:46:57.327Z,23.90
2023-08-08T14:49:26.992Z,23.92
2023-08-08T14:51:55.110Z,23.85
2023-08-08T14:54:24.505Z,23.90
2023-08-08T14:56:52.656Z,23.95
2023-08-08T14:59:20.719Z,24.03
2023-08-08T15:01:48.964Z,24.08
2023-08-08T15:04:17.058Z,24.16
2023-08-08T15:06:45.000Z,24.22
2023-08-08T15:09:14.491Z,24.32
2023-08-08T15:11:43.947Z,24.48
2023-08-08T15:14:11.972Z,24.54
2023-08-08T15:16:39.940Z,24.61
2023-08-08T15:19:08.317Z,24.63
2023-08-08T15:21:36.402Z,24.67
2023-08-08T15:24:04.306Z,24.72
2023-08-08T15:26:32.289Z,24.79
2023-08-08T15:29:02.026Z,24.81
2023-08-08T15:31:30.186Z,24.73
2023-08-08T15:33:58.279Z,24.66
2023-08-08T15:36:26.507Z,24.60
2023-08-08T15:38:55.544Z,24.52
2023-08-08T15:41:23.668Z,24.59
2023-08-08T15:43:51.787Z,24.75
2023-08-08T15:46:21.286Z,24.94
2023-08-08T15:48:49.371Z,25.07
2023-08-08T15:51:17.344Z,25.07
2023-08-08T15:53:45.285Z,24.99
2023-08-08T15:56:13.198Z,24.98
2023-08-08T15:58:41.572Z,24.99
2023-08-08T16:01:09.572Z,24.90
2023-08-08T16:03:39.452Z,24.68
2023-08-08T16:06:07.611Z,24.54
2023-08-08T16:08:35.772Z,24.51
2023-08-08T16:11:05.579Z,24.41
2023-08-08T16:13:33.639Z,24.27
2023-08-08T16:16:02.127Z,24.08
2023-08-08T16:18:30.531Z,24.00
2023-08-08T16:21:01.359Z,23.86
2023-08-08T16:23:29.368Z,23.74
2023-08-08T16:25:57.730Z,23.58
2023-08-08T16:28:27.236Z,23.36
2023-08-08T16:30:55.215Z,23.21
2023-08-08T16:33:23.225Z,23.11
2023-08-08T16:35:51.530Z,23.01
2023-08-08T16:38:20.869Z,22.93
2023-08-08T16:40:48.858Z,22.96
2023-08-08T16:43:19.395Z,22.82
2023-08-08T16:45:47.341Z,23.11
2023-08-08T16:48:15.712Z,23.28
2023-08-08T16:50:43.680Z,23.40
2023-08-08T16:53:11.629Z,23.47
2023-08-08T16:55:42.955Z,23.57
2023-08-08T16:58:11.093Z,23.55
2023-08-08T17:00:39.201Z,23.53
2023-08-08T17:03:07.395Z,23.44
2023-08-08T17:05:36.166Z,23.33
2023-08-08T17:08:06.119Z,23.30
2023-08-08T17:10:34.074Z,23.30
2023-08-08T17:13:03.426Z,23.37
2023-08-08T17:15:31.377Z,23.43
2023-08-08T17:17:59.480Z,23.51
2023-08-08T17:20:27.502Z,23.53
2023-08-08T17:22:55.850Z,23.54
2023-08-08T17:25:23.809Z,23.45
2023-08-08T17:27:51.967Z,23.36
2023-08-08T17:30:21.378Z,23.32
2023-08-08T17:32:49.399Z,23.30
2023-08-08T17:35:17.514Z,23.27
2023-08-08T17:37:45.568Z,23.21
2023-08-08T17:40:13.794Z,23.08
2023-08-08T17:42:41.797Z,23.01
2023-08-08T17:45:11.085Z,22.86
2023-08-08T17:47:40.588Z,22.87
2023-08-08T17:50:09.968Z,22.81
2023-08-08T17:52:37.925Z,22.78
2023-08-08T17:55:06.598Z,22.74
2023-08-08T17:57:34.577Z,22.71
2023-08-08T18:00:03.023Z,22.69
2023-08-08T18:02:31.067Z,22.71
2023-08-08T18:05:00.432Z,22.68
2023-08-08T18:07:28.449Z,22.65
2023-08-08T18:09:56.503Z,22.50
2023-08-08T18:12:24.517Z,22.51
2023-08-08T18:14:54.245Z,22.49
2023-08-08T18:17:23.309Z,22.45
2023-08-08T18:19:51.411Z,22.40
2023-08-08T18:22:20.722Z,22.35
2023-08-08T18:24:48.679Z,22.35
2023-08-08T18:27:17.387Z,22.31
2023-08-08T18:29:45.509Z,22.31
2023-08-08T18:32:13.431Z,22.29
2023-08-08T18:34:41.486Z,22.18
2023-08-08T18:37:09.474Z,22.25
2023-08-08T18:39:38.852Z,22.21
2023-08-08T18:42:07.518Z,22.21
2023-08-08T18:44:35.502Z,22.21
2023-08-08T18:47:03.399Z,22.19
2023-08-08T18:49:31.767Z,22.17
2023-08-08T18:51:59.999Z,22.18
2023-08-08T18:54:28.611Z,22.14
2023-08-08T18:56:57.889Z,22.10
2023-08-08T18:59:26.031Z,22.11
2023-08-08T19:01:54.253Z,22.10
2023-08-08T19:04:22.381Z,22.08
2023-08-08T19:06:50.576Z,22.06
2023-08-08T19:09:20.203Z,22.03
2023-08-08T19:11:48.233Z,22.00
2023-08-08T19:14:17.692Z,21.99
2023-08-08T19:16:45.634Z,21.98
2023-08-08T19:19:14.094Z,21.97
2023-08-08T19:21:42.169Z,21.98
2023-08-08T19:24:10.796Z,21.99
2023-08-08T19:26:38.806Z,21.99
2023-08-08T19:29:06.805Z,21.99
2023-08-08T19:31:36.436Z,21.96
2023-08-08T19:34:06.787Z,21.95
2023-08-08T19:36:35.552Z,21.95
2023-08-08T19:39:03.687Z,21.95
2023-08-08T19:41:31.647Z,21.93
2023-08-08T19:43:59.649Z,21.93
2023-08-08T19:46:27.677Z,21.95
2023-08-08T19:48:57.175Z,21.95
2023-08-08T19:51:25.201Z,21.97
2023-08-08T19:53:53.273Z,21.98
2023-08-08T19:56:21.261Z,21.96
2023-08-08T19:58:49.554Z,21.95
2023-08-08T20:01:17.939Z,21.96
2023-08-08T20:03:46.029Z,21.95
2023-08-08T20:06:15.450Z,21.95
2023-08-08T20:08:43.611Z,21.92
2023-08-08T20:11:11.922Z,21.91
2023-08-08T20:13:39.953Z,21.84
2023-08-08T20:16:08.077Z,21.78
2023-08-08T20:18:36.212Z,21.77
2023-08-08T20:21:04.205Z,21.68
2023-08-08T20:23:33.591Z,21.69
2023-08-08T20:26:03.585Z,21.67
2023-08-08T20:28:31.721Z,21.63
2023-08-08T20:30:59.721Z,21.64
2023-08-08T20:33:27.799Z,21.60
2023-08-08T20:35:55.729Z,21.58
2023-08-08T20:38:23.748Z,21.54
2023-08-08T20:40:53.089Z,21.54
2023-08-08T20:43:21.063Z,21.53
2023-08-08T20:45:49.004Z,21.51
2023-08-08T20:48:17.046Z,21.48
2023-08-08T20:50:44.959Z,21.48
2023-08-08T20:53:14.003Z,21.48
2023-08-08T20:55:42.031Z,21.30
2023-08-08T20:58:11.408Z,21.49
2023-08-08T21:00:39.368Z,21.51
2023-08-08T21:03:08.166Z,21.45
2023-08-08T21:05:36.253Z,21.50
2023-08-08T21:08:04.803Z,21.55
2023-08-08T21:10:32.973Z,21.57
2023-08-08T21:13:01.108Z,21.51
2023-08-08T21:15:30.395Z,21.58
2023-08-08T21:17:59.056Z,21.52
2023-08-08T21:20:27.169Z,21.59
2023-08-08T21:22:55.109Z,21.55
2023-08-08T21:25:23.295Z,21.55
2023-08-08T21:27:51.339Z,21.53
2023-08-08T21:30:19.270Z,21.54
2023-08-08T21:32:49.422Z,21.52
2023-08-08T21:35:17.710Z,21.50
2023-08-08T21:37:45.655Z,21.50
2023-08-08T21:40:13.727Z,21.49
2023-08-08T21:42:41.727Z,21.48
2023-08-08T21:45:10.604Z,21.45
2023-08-08T21:47:39.519Z,21.38
2023-08-08T21:50:09.952Z,21.45
2023-08-08T21:52:37.951Z,21.46
2023-08-08T21:55:06.588Z,21.49
2023-08-08T21:57:34.526Z,21.50
2023-08-08T22:00:02.522Z,21.52
2023-08-08T22:02:30.554Z,21.53
2023-08-08T22:04:58.492Z,21.53
2023-08-08T22:07:27.790Z,21.50
2023-08-08T22:09:55.884Z,21.52
2023-08-08T22:12:23.849Z,21.52
2023-08-08T22:14:51.771Z,21.51
2023-08-08T22:17:19.694Z,21.49
2023-08-08T22:19:47.694Z,21.47
2023-08-08T22:22:15.606Z,21.47
2023-08-08T22:24:44.925Z,21.48
2023-08-08T22:27:12.894Z,21.48
2023-08-08T22:29:40.918Z,21.49
2023-08-08T22:32:08.850Z,21.49
2023-08-08T22:34:36.813Z,21.51
2023-08-08T22:37:04.817Z,21.48
2023-08-08T22:39:32.778Z,21.51
2023-08-08T22:42:02.146Z,21.51
2023-08-08T22:44:30.051Z,21.48
2023-08-08T22:46:57.987Z,21.47
2023-08-08T22:49:25.856Z,21.49
2023-08-08T22:51:53.757Z,21.51
2023-08-08T22:54:22.037Z,21.51
2023-08-08T22:56:49.954Z,21.53
2023-08-08T22:59:19.249Z,21.50
2023-08-08T23:01:47.346Z,21.48
2023-08-08T23:04:15.370Z,21.50
2023-08-08T23:06:43.298Z,21.49
2023-08-08T23:09:11.458Z,21.54
2023-08-08T23:11:39.402Z,21.57
2023-08-08T23:14:07.315Z,21.57
2023-08-08T23:16:36.630Z,21.55
2023-08-08T23:19:04.851Z,21.57
2023-08-08T23:21:32.829Z,21.55
2023-08-08T23:24:00.809Z,21.58
2023-08-08T23:26:28.792Z,21.57
2023-08-08T23:28:57.049Z,21.58
2023-08-08T23:31:25.007Z,21.58
2023-08-08T23:33:54.409Z,21.58
2023-08-08T23:36:22.618Z,21.58
2023-08-08T23:38:50.574Z,21.58
2023-08-08T23:41:18.915Z,21.60
2023-08-08T23:43:46.814Z,21.59
2023-08-08T23:46:14.797Z,21.62
2023-08-08T23:48:43.416Z,21.61
2023-08-08T23:51:13.197Z,21.59
2023-08-08T23:53:41.112Z,21.58
2023-08-08T23:56:09.033Z,21.56
2023-08-08T23:58:36.921Z,21.55
